Hinkley, California
Current Conditions -  °F | °C
As of 9:50 AM on Friday 19 Dec 2014 (Local Time) from KDAG Reporting Station
Clear Clear  
Wind Chill: 45°   Ceiling: Unl
Heat Index: 48°   Visibility: 10mi
Dew Point: 38°   Wind: 7mph
Humidity: 68%   Direction: 280°W
Pressure: 30.27"   Gusts: NA
Location:  34.93°N, 117.2°W
Report Text: KDAG 191750Z AUTO 28006KT 10SM CLR 09/03 A3027 RMK AO2 SLP249 T00890033 10089 20022 50013
Loading
Personal Weather Stations






























Interactive Weather Map New forecast layout! Learn more

10-Day Weather Forecast

Advertisements
Track Severe Weather on mobile